createdAt,value
2022-10-05T00:04:18.723Z,5.80
2022-10-05T00:09:24.058Z,6.00
2022-10-05T00:14:34.192Z,5.90
2022-10-05T00:19:40.404Z,6.10
2022-10-05T00:24:47.753Z,6.00
2022-10-05T00:29:54.900Z,6.10
2022-10-05T00:34:59.859Z,6.10
2022-10-05T00:40:08.394Z,6.00
2022-10-05T00:45:22.638Z,5.70
2022-10-05T00:50:34.708Z,5.80
2022-10-05T00:55:49.210Z,5.40
2022-10-05T01:01:07.592Z,5.40
2022-10-05T01:06:25.229Z,5.50
2022-10-05T01:11:33.211Z,5.70
2022-10-05T01:17:04.710Z,5.70
2022-10-05T01:22:16.157Z,5.50
2022-10-05T01:27:46.191Z,5.60
2022-10-05T01:32:57.487Z,5.70
2022-10-05T01:38:06.982Z,5.50
2022-10-05T01:43:25.261Z,5.70
2022-10-05T01:48:51.300Z,5.30
2022-10-05T01:54:16.471Z,4.80
2022-10-05T01:59:30.948Z,5.10
2022-10-05T02:05:01.584Z,5.10
2022-10-05T02:10:02.038Z,5.10
2022-10-05T02:15:14.138Z,5.30
2022-10-05T02:20:26.425Z,5.10
2022-10-05T02:25:34.398Z,5.30
2022-10-05T02:30:45.864Z,5.10
2022-10-05T02:35:51.361Z,5.30
2022-10-05T02:41:08.392Z,5.20
2022-10-05T02:46:19.947Z,5.20
2022-10-05T02:51:40.348Z,5.30
2022-10-05T02:56:57.441Z,5.10
2022-10-05T03:02:11.445Z,4.80
2022-10-05T03:07:27.594Z,4.70
2022-10-05T03:12:54.376Z,4.80
2022-10-05T03:18:16.944Z,4.80
2022-10-05T03:23:40.628Z,4.60
2022-10-05T03:29:15.257Z,4.90
2022-10-05T03:34:30.566Z,4.50
2022-10-05T03:39:44.574Z,4.50
2022-10-05T03:45:15.687Z,4.90
2022-10-05T03:50:27.294Z,4.80
2022-10-05T03:55:45.858Z,4.90
2022-10-05T04:00:54.192Z,4.90
2022-10-05T04:06:11.118Z,4.80
2022-10-05T04:11:20.473Z,5.00
2022-10-05T04:16:29.257Z,5.00
2022-10-05T04:21:56.075Z,5.10
2022-10-05T04:27:02.970Z,5.00
2022-10-05T04:32:19.589Z,4.50
2022-10-05T04:37:46.395Z,4.80
2022-10-05T04:42:52.881Z,4.70
2022-10-05T04:48:10.320Z,5.00
2022-10-05T04:53:25.140Z,4.80
2022-10-05T04:58:45.676Z,4.90
2022-10-05T05:04:09.023Z,4.60
2022-10-05T05:09:20.707Z,4.90
2022-10-05T05:15:00.435Z,4.80
2022-10-05T05:20:26.093Z,4.80
2022-10-05T05:25:56.199Z,4.90
2022-10-05T05:31:24.893Z,5.00
2022-10-05T05:36:52.178Z,4.90
2022-10-05T05:42:19.142Z,5.30
2022-10-05T05:47:39.168Z,5.30
2022-10-05T05:52:50.547Z,5.50
2022-10-05T05:58:02.170Z,5.80
2022-10-05T06:03:15.909Z,6.00
2022-10-05T06:08:25.023Z,6.00
2022-10-05T06:13:36.698Z,6.40
2022-10-05T06:18:44.959Z,6.70
2022-10-05T06:24:10.105Z,6.80
2022-10-05T06:29:22.022Z,7.00
2022-10-05T06:34:42.354Z,7.20
2022-10-05T06:39:50.558Z,7.30
2022-10-05T06:45:26.034Z,7.30
2022-10-05T06:50:51.246Z,7.50
2022-10-05T06:56:18.125Z,7.90
2022-10-05T07:02:00.051Z,8.20
2022-10-05T07:07:08.110Z,8.40
2022-10-05T07:12:27.549Z,8.60
2022-10-05T07:18:01.358Z,8.90
2022-10-05T07:23:12.961Z,9.00
2022-10-05T07:28:30.533Z,9.10
2022-10-05T07:33:54.329Z,9.40
2022-10-05T07:39:14.913Z,9.60
2022-10-05T07:44:38.192Z,10.10
2022-10-05T07:49:52.228Z,10.60
2022-10-05T07:55:34.050Z,11.30
2022-10-05T08:00:47.728Z,11.80
2022-10-05T08:05:52.872Z,11.60
2022-10-05T08:11:03.973Z,11.80
2022-10-05T08:16:14.947Z,12.00
2022-10-05T08:21:22.936Z,12.20
2022-10-05T08:26:53.080Z,12.30
2022-10-05T08:32:03.617Z,12.60
2022-10-05T08:37:12.130Z,13.20
2022-10-05T08:42:43.215Z,13.70
2022-10-05T08:47:54.282Z,13.80
2022-10-05T08:53:20.636Z,13.80
2022-10-05T08:58:35.004Z,13.90
2022-10-05T09:03:48.358Z,14.10
2022-10-05T09:09:05.182Z,14.60
2022-10-05T09:14:22.585Z,14.70
2022-10-05T09:19:55.096Z,15.00
2022-10-05T09:25:12.662Z,15.30
2022-10-05T09:30:39.143Z,15.40
2022-10-05T09:36:04.428Z,15.20
2022-10-05T09:41:42.261Z,15.20
2022-10-05T09:46:53.319Z,15.40
2022-10-05T09:52:18.614Z,15.50
2022-10-05T09:57:53.091Z,15.40
2022-10-05T10:03:09.780Z,15.60
2022-10-05T10:08:29.848Z,16.00
2022-10-05T10:14:02.757Z,16.10
2022-10-05T10:19:24.188Z,16.20
2022-10-05T10:24:53.875Z,16.30
2022-10-05T10:30:27.605Z,16.60
2022-10-05T10:35:36.486Z,16.70
2022-10-05T10:41:12.240Z,17.00
2022-10-05T10:46:23.904Z,17.30
2022-10-05T10:51:49.491Z,17.60
2022-10-05T10:57:04.582Z,17.60
2022-10-05T11:02:23.288Z,17.60
2022-10-05T11:07:53.702Z,17.70
2022-10-05T11:13:30.867Z,18.10
2022-10-05T11:18:43.447Z,18.40
2022-10-05T11:24:08.454Z,18.10
2022-10-05T11:29:51.490Z,17.90
2022-10-05T11:35:25.729Z,18.00
2022-10-05T11:40:49.006Z,18.10
2022-10-05T11:46:11.614Z,18.00
2022-10-05T11:51:49.552Z,18.70
2022-10-05T11:57:04.012Z,19.40
2022-10-05T12:02:45.798Z,19.60
2022-10-05T12:08:09.074Z,19.80
2022-10-05T12:13:44.526Z,19.20
2022-10-05T12:19:00.019Z,18.80
2022-10-05T12:24:24.566Z,18.30
2022-10-05T12:29:41.704Z,18.30
2022-10-05T12:35:03.400Z,18.80
2022-10-05T12:40:20.239Z,19.00
2022-10-05T12:45:34.830Z,19.40
2022-10-05T12:50:53.374Z,19.60
2022-10-05T12:56:14.701Z,19.20
2022-10-05T13:01:44.690Z,19.40
2022-10-05T13:07:16.423Z,19.40
2022-10-05T13:12:27.515Z,19.30
2022-10-05T13:17:43.219Z,19.60
2022-10-05T13:22:51.850Z,19.40
2022-10-05T13:28:17.531Z,19.70
2022-10-05T13:33:31.552Z,19.80
2022-10-05T13:38:49.421Z,20.00
2022-10-05T13:44:21.174Z,20.00
2022-10-05T13:49:41.707Z,19.80
2022-10-05T13:54:50.536Z,19.80
2022-10-05T14:00:05.923Z,19.70
2022-10-05T14:05:27.070Z,19.70
2022-10-05T14:10:39.655Z,19.40
2022-10-05T14:15:47.709Z,19.10
2022-10-05T14:21:12.257Z,19.00
2022-10-05T14:26:29.652Z,19.10
2022-10-05T14:31:37.802Z,18.60
2022-10-05T14:36:44.169Z,18.70
2022-10-05T14:41:51.309Z,18.90
2022-10-05T14:47:01.226Z,18.80
2022-10-05T14:52:35.363Z,18.50
2022-10-05T14:57:43.900Z,18.10
2022-10-05T15:03:10.661Z,17.90
2022-10-05T15:08:30.552Z,17.80
2022-10-05T15:13:45.023Z,17.60
2022-10-05T15:19:15.887Z,17.50
2022-10-05T15:24:30.136Z,17.20
2022-10-05T15:30:00.316Z,16.90
2022-10-05T15:35:20.805Z,16.40
2022-10-05T15:40:45.934Z,16.20
2022-10-05T15:46:19.320Z,16.00
2022-10-05T15:52:03.106Z,15.90
2022-10-05T15:57:28.740Z,15.60
2022-10-05T16:02:44.219Z,15.10
2022-10-05T16:08:10.141Z,15.00
2022-10-05T16:13:39.004Z,14.90
2022-10-05T16:18:50.486Z,14.60
2022-10-05T16:24:05.889Z,14.10
2022-10-05T16:29:29.518Z,13.90
2022-10-05T16:35:01.824Z,13.80
2022-10-05T16:40:20.155Z,13.60
2022-10-05T16:45:46.275Z,13.50
2022-10-05T16:51:00.949Z,13.00
2022-10-05T16:56:09.617Z,12.90
2022-10-05T17:01:38.869Z,12.80
2022-10-05T17:06:54.540Z,12.50
2022-10-05T17:12:20.965Z,12.50
2022-10-05T17:17:58.613Z,12.30
2022-10-05T17:23:18.645Z,12.70
2022-10-05T17:28:46.051Z,12.30
2022-10-05T17:34:10.417Z,11.90
2022-10-05T17:39:19.375Z,11.80
2022-10-05T17:44:27.420Z,11.30
2022-10-05T17:49:42.611Z,10.80
2022-10-05T17:55:08.963Z,12.30
2022-10-05T18:00:34.388Z,13.10
2022-10-05T18:05:40.463Z,14.00
2022-10-05T18:11:12.654Z,14.40
2022-10-05T18:16:57.424Z,14.50
2022-10-05T18:22:16.015Z,14.80
2022-10-05T18:27:40.512Z,14.80
2022-10-05T18:32:57.470Z,14.40
2022-10-05T18:38:35.194Z,14.40
2022-10-05T18:44:03.868Z,14.30
2022-10-05T18:49:32.679Z,13.40
2022-10-05T18:54:55.139Z,14.70
2022-10-05T19:00:05.028Z,14.50
2022-10-05T19:05:46.349Z,14.60
2022-10-05T19:10:39.690Z,14.60
2022-10-05T19:15:51.829Z,14.70
2022-10-05T19:21:22.150Z,13.20
2022-10-05T19:26:47.935Z,12.70
2022-10-05T19:32:03.305Z,12.10
2022-10-05T19:37:27.896Z,11.70
2022-10-05T19:42:57.685Z,11.10
2022-10-05T19:48:15.604Z,11.30
2022-10-05T19:53:40.185Z,11.00
2022-10-05T19:58:46.253Z,10.90
2022-10-05T20:03:52.805Z,10.70
2022-10-05T20:09:01.785Z,10.70
2022-10-05T20:14:12.369Z,10.80
2022-10-05T20:19:54.898Z,10.80
2022-10-05T20:25:04.351Z,10.60
2022-10-05T20:30:11.718Z,10.50
2022-10-05T20:35:19.106Z,10.50
2022-10-05T20:40:24.486Z,10.40
2022-10-05T20:45:31.420Z,10.30
2022-10-05T20:50:37.597Z,10.30
2022-10-05T20:55:43.472Z,10.00
2022-10-05T21:01:07.426Z,10.00
2022-10-05T21:06:17.779Z,10.00
2022-10-05T21:11:23.163Z,10.20
2022-10-05T21:16:31.188Z,10.00
2022-10-05T21:21:37.605Z,10.70
2022-10-05T21:26:47.914Z,10.50
2022-10-05T21:31:53.872Z,10.20
2022-10-05T21:36:59.416Z,9.70
2022-10-05T21:42:05.492Z,9.80
2022-10-05T21:47:12.065Z,9.20
2022-10-05T21:52:17.748Z,9.20
2022-10-05T21:57:23.768Z,9.40
2022-10-05T22:02:30.043Z,9.60
2022-10-05T22:07:35.625Z,9.40
2022-10-05T22:12:42.282Z,9.70
2022-10-05T22:17:47.542Z,9.40
2022-10-05T22:22:53.855Z,10.30
2022-10-05T22:27:58.976Z,9.80
2022-10-05T22:33:04.506Z,9.20
2022-10-05T22:38:09.762Z,9.30
2022-10-05T22:43:14.816Z,9.70
2022-10-05T22:48:21.199Z,10.30
2022-10-05T22:53:26.800Z,10.60
2022-10-05T22:58:31.811Z,10.00
2022-10-05T23:03:37.277Z,10.00
2022-10-05T23:08:44.053Z,10.00
2022-10-05T23:13:52.702Z,10.20
2022-10-05T23:18:57.693Z,10.60
2022-10-05T23:24:03.217Z,10.90
2022-10-05T23:29:10.315Z,10.20
2022-10-05T23:34:16.394Z,9.90
2022-10-05T23:39:22.158Z,10.40
2022-10-05T23:44:27.726Z,10.40
2022-10-05T23:49:33.183Z,11.10
2022-10-05T23:54:38.690Z,11.00
2022-10-05T23:59:44.106Z,10.80
